Rhein, Canada
Current Conditions -  °F | °C
As of 4:00 PM on Thursday 27 Nov 2014 (Local Time) from CYQV Reporting Station
Broken Clouds Broken Clouds  
Wind Chill: -7°   Ceiling: 14000
Heat Index:   Visibility: 9mi
Dew Point:   Wind: 7mph
Humidity: 85%   Direction: 110°ESE
Pressure: 30.06"   Gusts: NA
Location:  51.35°N, 102.19°W
Report Text: CYQV 272200Z AUTO 11006KT 9SM BKN140 M15/M17 A3006 RMK SLP233
Loading
Personal Weather Stations






























Interactive Weather Map New forecast layout! Learn more

10-Day Weather Forecast

Advertisements
Track Severe Weather on mobile